createdAt,value
2018-08-18T00:00:39.383Z,13.83
2018-08-18T00:03:10.378Z,10.80
2018-08-18T00:05:39.596Z,9.87
2018-08-18T00:08:10.869Z,9.27
2018-08-18T00:10:40.361Z,8.50
2018-08-18T00:13:10.554Z,7.47
2018-08-18T00:15:39.892Z,7.37
2018-08-18T00:18:09.177Z,7.97
2018-08-18T00:20:38.477Z,8.27
2018-08-18T00:23:07.772Z,7.83
2018-08-18T00:25:37.010Z,7.97
2018-08-18T00:28:19.422Z,7.50
2018-08-18T00:30:49.115Z,7.67
2018-08-18T00:33:18.554Z,8.43
2018-08-18T00:35:48.590Z,7.80
2018-08-18T00:38:17.889Z,8.23
2018-08-18T00:40:47.147Z,8.30
2018-08-18T00:43:17.669Z,7.87
2018-08-18T00:45:47.678Z,8.00
2018-08-18T00:48:16.931Z,7.60
2018-08-18T00:50:47.459Z,8.27
2018-08-18T00:53:18.462Z,7.73
2018-08-18T00:55:48.698Z,8.00
2018-08-18T00:58:22.040Z,7.67
2018-08-18T01:00:57.537Z,7.43
2018-08-18T01:03:26.833Z,8.57
2018-08-18T01:06:00.752Z,8.63
2018-08-18T01:08:30.473Z,8.27
2018-08-18T01:11:00.735Z,8.67
2018-08-18T01:13:29.945Z,7.93
2018-08-18T01:16:00.081Z,9.00
2018-08-18T01:18:30.039Z,7.60
2018-08-18T01:20:59.459Z,7.87
2018-08-18T01:23:30.398Z,8.17
2018-08-18T01:25:59.623Z,8.87
2018-08-18T01:28:29.789Z,8.37
2018-08-18T01:31:26.080Z,9.33
2018-08-18T01:33:55.855Z,8.80
2018-08-18T01:36:25.191Z,11.23
2018-08-18T01:38:54.463Z,11.67
2018-08-18T01:41:25.994Z,9.90
2018-08-18T01:44:28.716Z,12.57
2018-08-18T01:46:59.340Z,9.57
2018-08-18T01:49:36.684Z,8.70
2018-08-18T01:52:13.297Z,10.43
2018-08-18T01:54:42.942Z,8.13
2018-08-18T01:57:14.981Z,8.63
2018-08-18T01:59:46.976Z,7.33
2018-08-18T02:02:22.885Z,7.93
2018-08-18T02:04:54.252Z,8.17
2018-08-18T02:07:27.294Z,7.63
2018-08-18T02:09:57.691Z,8.00
2018-08-18T02:12:27.312Z,8.97
2018-08-18T02:14:57.375Z,8.60
2018-08-18T02:17:28.756Z,8.50
2018-08-18T02:19:58.207Z,8.37
2018-08-18T02:22:28.073Z,8.27
2018-08-18T02:24:57.974Z,8.60
2018-08-18T02:27:27.204Z,8.57
2018-08-18T02:30:07.462Z,8.57
2018-08-18T02:32:39.052Z,9.17
2018-08-18T02:35:09.301Z,8.40
2018-08-18T02:37:38.667Z,9.00
2018-08-18T02:40:10.115Z,8.50
2018-08-18T02:42:39.375Z,9.10
2018-08-18T02:45:16.768Z,8.90
2018-08-18T02:47:46.185Z,8.87
2018-08-18T02:50:15.718Z,8.90
2018-08-18T02:52:44.934Z,9.17
2018-08-18T02:55:14.202Z,9.43
2018-08-18T02:57:45.978Z,9.13
2018-08-18T03:00:22.901Z,10.07
2018-08-18T03:02:52.077Z,9.40
2018-08-18T03:05:21.954Z,9.50
2018-08-18T03:07:52.268Z,9.83
2018-08-18T03:10:23.966Z,9.00
2018-08-18T03:13:01.083Z,9.73
2018-08-18T03:16:00.221Z,9.70
2018-08-18T03:18:37.776Z,9.70
2018-08-18T03:21:07.115Z,10.30
2018-08-18T03:23:36.601Z,9.83
2018-08-18T03:26:06.887Z,9.77
2018-08-18T03:28:51.225Z,10.57
2018-08-18T03:31:20.566Z,10.33
2018-08-18T03:33:49.971Z,9.70
2018-08-18T03:36:28.452Z,9.63
2018-08-18T03:38:58.154Z,10.43
2018-08-18T03:41:29.539Z,9.57
2018-08-18T03:43:59.627Z,8.40
2018-08-18T03:46:29.525Z,9.73
2018-08-18T03:49:06.586Z,9.90
2018-08-18T03:51:40.703Z,9.30
2018-08-18T03:54:11.002Z,9.63
2018-08-18T03:56:40.662Z,10.43
2018-08-18T03:59:16.438Z,10.20
2018-08-18T04:01:52.267Z,10.50
2018-08-18T04:04:32.835Z,10.20
2018-08-18T04:07:03.309Z,10.97
2018-08-18T04:09:34.449Z,10.57
2018-08-18T04:12:06.474Z,11.20
2018-08-18T04:14:42.007Z,11.20
2018-08-18T04:17:26.158Z,10.53
2018-08-18T04:19:55.425Z,11.00
2018-08-18T04:22:31.027Z,11.13
2018-08-18T04:25:03.335Z,11.50
2018-08-18T04:27:43.140Z,11.27
2018-08-18T04:30:15.349Z,10.97
2018-08-18T04:33:00.084Z,12.50
2018-08-18T04:35:32.040Z,12.97
2018-08-18T04:38:03.180Z,13.90
2018-08-18T04:40:33.112Z,15.83
2018-08-18T04:43:03.648Z,15.57
2018-08-18T04:45:34.334Z,11.43
2018-08-18T04:48:04.095Z,11.57
2018-08-18T04:50:35.005Z,11.07
2018-08-18T04:53:05.493Z,10.93
2018-08-18T04:55:35.573Z,11.67
2018-08-18T04:58:05.393Z,11.73
2018-08-18T05:00:36.209Z,12.07
2018-08-18T05:03:07.165Z,11.43
2018-08-18T05:05:37.602Z,12.83
2018-08-18T05:08:08.533Z,11.60
2018-08-18T05:10:41.125Z,11.77
2018-08-18T05:13:11.911Z,11.77
2018-08-18T05:15:42.234Z,12.60
2018-08-18T05:18:13.557Z,11.83
2018-08-18T05:20:45.673Z,11.23
2018-08-18T05:23:26.807Z,11.87
2018-08-18T05:25:56.329Z,11.57
2018-08-18T05:28:26.361Z,11.73
2018-08-18T05:30:55.646Z,12.20
2018-08-18T05:33:25.159Z,11.90
2018-08-18T05:35:54.713Z,11.90
2018-08-18T05:38:30.637Z,11.63
2018-08-18T05:41:01.367Z,12.30
2018-08-18T05:43:32.106Z,11.00
2018-08-18T05:46:04.020Z,11.07
2018-08-18T05:48:33.461Z,11.30
2018-08-18T05:51:02.745Z,11.73
2018-08-18T05:53:35.699Z,11.73
2018-08-18T05:56:05.486Z,11.73
2018-08-18T05:58:55.447Z,11.93
2018-08-18T06:01:36.320Z,11.70
2018-08-18T06:04:20.729Z,11.47
2018-08-18T06:06:50.767Z,10.53
2018-08-18T06:09:22.411Z,10.63
2018-08-18T06:11:52.345Z,10.20
2018-08-18T06:14:22.242Z,10.43
2018-08-18T06:16:52.990Z,10.57
2018-08-18T06:19:23.192Z,10.37
2018-08-18T06:21:55.159Z,10.10
2018-08-18T06:24:25.347Z,10.07
2018-08-18T06:26:54.511Z,9.97
2018-08-18T06:29:25.476Z,10.30
2018-08-18T06:32:03.519Z,10.10
2018-08-18T06:34:35.008Z,10.33
2018-08-18T06:37:04.334Z,10.30
2018-08-18T06:39:49.269Z,9.73
2018-08-18T06:42:39.308Z,9.67
2018-08-18T06:45:13.430Z,9.37
2018-08-18T06:47:43.178Z,9.93
2018-08-18T06:50:21.753Z,8.80
2018-08-18T06:52:53.525Z,8.63
2018-08-18T06:55:23.031Z,9.13
2018-08-18T06:57:55.978Z,8.53
2018-08-18T07:00:28.931Z,9.17
2018-08-18T07:02:58.259Z,8.57
2018-08-18T07:05:27.442Z,8.00
2018-08-18T07:07:56.875Z,8.47
2018-08-18T07:10:37.842Z,9.27
2018-08-18T07:13:09.159Z,8.57
2018-08-18T07:15:41.144Z,9.03
2018-08-18T07:18:11.877Z,8.07
2018-08-18T07:20:43.083Z,8.90
2018-08-18T07:23:13.993Z,8.50
2018-08-18T07:26:15.480Z,8.70
2018-08-18T07:28:46.441Z,8.10
2018-08-18T07:31:18.720Z,8.50
2018-08-18T07:33:50.593Z,8.73
2018-08-18T07:36:21.739Z,7.90
2018-08-18T07:38:52.359Z,8.70
2018-08-18T07:41:23.432Z,8.50
2018-08-18T07:43:54.691Z,8.63
2018-08-18T07:46:23.905Z,8.83
2018-08-18T07:48:55.074Z,8.80
2018-08-18T07:51:24.711Z,7.97
2018-08-18T07:53:56.820Z,7.67
2018-08-18T07:56:27.616Z,8.10
2018-08-18T07:59:05.126Z,9.57
2018-08-18T08:01:35.616Z,8.80
2018-08-18T08:04:06.990Z,8.27
2018-08-18T08:06:38.509Z,8.53
2018-08-18T08:09:09.504Z,7.70
2018-08-18T08:11:39.996Z,8.03
2018-08-18T08:14:09.193Z,8.77
2018-08-18T08:16:38.346Z,8.77
2018-08-18T08:19:09.690Z,9.47
2018-08-18T08:21:45.175Z,8.00
2018-08-18T08:24:14.971Z,8.07
2018-08-18T08:26:46.409Z,8.10
2018-08-18T08:29:16.748Z,8.53
2018-08-18T08:31:48.041Z,8.10
2018-08-18T08:34:19.069Z,7.77
2018-08-18T08:36:51.966Z,7.43
2018-08-18T08:39:21.251Z,7.13
2018-08-18T08:41:58.169Z,7.80
2018-08-18T08:44:28.050Z,7.33
2018-08-18T08:47:12.911Z,7.53
2018-08-18T08:49:44.329Z,7.03
2018-08-18T08:52:14.658Z,7.43
2018-08-18T08:54:47.483Z,6.33
2018-08-18T08:57:18.801Z,7.50
2018-08-18T08:59:52.198Z,7.17
2018-08-18T09:02:22.755Z,7.67
2018-08-18T09:04:55.533Z,7.50
2018-08-18T09:07:26.038Z,7.70
2018-08-18T09:10:00.391Z,7.80
2018-08-18T09:12:30.751Z,6.40
2018-08-18T09:15:02.146Z,6.33
2018-08-18T09:17:33.253Z,6.63
2018-08-18T09:20:03.171Z,6.93
2018-08-18T09:22:37.886Z,7.60
2018-08-18T09:25:17.966Z,6.80
2018-08-18T09:27:55.034Z,7.63
2018-08-18T09:30:27.610Z,6.93
2018-08-18T09:33:02.026Z,6.90
2018-08-18T09:35:34.804Z,6.87
2018-08-18T09:38:05.816Z,6.47
2018-08-18T09:40:36.664Z,6.33
2018-08-18T09:43:14.647Z,6.43
2018-08-18T09:45:44.013Z,6.03
2018-08-18T09:48:15.820Z,5.33
2018-08-18T09:50:44.992Z,5.77
2018-08-18T09:53:16.286Z,5.90
2018-08-18T09:55:46.926Z,5.67
2018-08-18T09:58:16.149Z,5.30
2018-08-18T10:00:47.301Z,5.33
2018-08-18T10:03:18.793Z,5.13
2018-08-18T10:05:48.091Z,4.90
2018-08-18T10:08:19.372Z,5.47
2018-08-18T10:10:49.748Z,4.83
2018-08-18T10:13:20.764Z,4.60
2018-08-18T10:15:51.345Z,4.10
2018-08-18T10:18:20.655Z,5.03
2018-08-18T10:20:51.798Z,4.67
2018-08-18T10:23:25.391Z,4.60
2018-08-18T10:25:55.112Z,4.33
2018-08-18T10:28:24.496Z,4.35
2018-08-18T10:30:54.469Z,4.20
2018-08-18T10:33:23.596Z,4.30
2018-08-18T10:36:01.894Z,4.37
2018-08-18T10:38:32.181Z,4.25
2018-08-18T10:41:06.353Z,4.60
2018-08-18T10:43:42.867Z,4.50
2018-08-18T10:46:12.432Z,4.80
2018-08-18T10:48:44.173Z,4.85
2018-08-18T10:51:26.040Z,4.05
2018-08-18T10:53:55.800Z,4.43
2018-08-18T10:56:26.652Z,4.07
2018-08-18T10:59:12.533Z,4.30
2018-08-18T11:01:56.577Z,4.20
2018-08-18T11:04:26.828Z,4.45
2018-08-18T11:06:57.969Z,4.75
2018-08-18T11:09:30.076Z,4.37
2018-08-18T11:12:01.406Z,4.90
2018-08-18T11:14:31.883Z,4.78
2018-08-18T11:17:03.676Z,4.35
2018-08-18T11:19:35.752Z,4.12
2018-08-18T11:22:17.165Z,4.50
2018-08-18T11:24:50.236Z,4.72
2018-08-18T11:27:19.907Z,4.83
2018-08-18T11:29:49.450Z,4.47
2018-08-18T11:32:19.648Z,4.58
2018-08-18T11:34:50.013Z,4.37
2018-08-18T11:37:22.294Z,4.25
2018-08-18T11:39:56.661Z,4.03
2018-08-18T11:42:26.505Z,4.58
2018-08-18T11:44:59.354Z,4.25
2018-08-18T11:47:29.415Z,3.85
2018-08-18T11:49:59.479Z,4.40
2018-08-18T11:52:29.418Z,4.30
2018-08-18T11:54:58.638Z,4.70
2018-08-18T11:57:29.894Z,4.67
2018-08-18T12:00:06.625Z,4.57
2018-08-18T12:09:23.860Z,4.70
2018-08-18T12:11:53.936Z,4.70
2018-08-18T12:14:25.045Z,4.27
2018-08-18T12:16:57.933Z,5.10
2018-08-18T12:19:29.204Z,4.90
2018-08-18T12:21:59.551Z,4.87
2018-08-18T12:24:28.955Z,4.20
2018-08-18T12:27:06.575Z,5.23
2018-08-18T12:29:36.712Z,4.80
2018-08-18T12:32:12.678Z,4.87
2018-08-18T12:34:42.605Z,5.50
2018-08-18T12:37:16.452Z,5.40
2018-08-18T12:39:46.929Z,5.08
2018-08-18T12:42:22.203Z,6.05
2018-08-18T12:44:53.603Z,5.30
2018-08-18T12:47:22.847Z,5.17
2018-08-18T12:49:58.916Z,4.80
2018-08-18T12:52:33.766Z,5.35
2018-08-18T12:55:03.911Z,4.97
2018-08-18T12:57:43.014Z,5.75
2018-08-18T13:00:17.976Z,5.25
2018-08-18T13:02:54.060Z,7.00
2018-08-18T13:05:28.823Z,7.53
2018-08-18T13:07:59.071Z,6.60
2018-08-18T13:10:30.232Z,6.08
2018-08-18T13:13:00.519Z,6.53
2018-08-18T13:15:31.660Z,5.83
2018-08-18T13:18:01.962Z,7.05
2018-08-18T13:20:32.652Z,7.30
2018-08-18T13:23:02.944Z,6.28
2018-08-18T13:25:33.557Z,5.87
2018-08-18T13:28:12.607Z,6.00
2018-08-18T13:30:44.399Z,6.22
2018-08-18T13:33:14.936Z,5.90
2018-08-18T13:35:45.741Z,5.22
2018-08-18T13:38:27.274Z,6.20
2018-08-18T13:40:56.951Z,5.53
2018-08-18T13:43:39.738Z,5.62
2018-08-18T13:46:11.185Z,6.15
2018-08-18T13:48:49.145Z,5.28
2018-08-18T13:51:18.709Z,5.85
2018-08-18T13:53:53.506Z,5.15
2018-08-18T13:56:26.162Z,5.35
2018-08-18T13:58:56.339Z,6.58
2018-08-18T14:01:44.344Z,5.28
2018-08-18T14:04:20.410Z,6.83
2018-08-18T14:06:52.763Z,9.48
2018-08-18T14:09:23.921Z,6.67
2018-08-18T14:12:04.831Z,6.45
2018-08-18T14:14:36.519Z,7.20
2018-08-18T14:17:07.177Z,5.75
2018-08-18T14:19:37.277Z,5.75
2018-08-18T14:22:07.437Z,6.65
2018-08-18T14:27:25.902Z,5.40
2018-08-18T14:29:57.845Z,5.78
2018-08-18T14:32:29.751Z,5.70
2018-08-18T14:35:08.431Z,5.90
2018-08-18T14:37:40.494Z,6.45
2018-08-18T14:40:17.595Z,5.67
2018-08-18T14:42:52.070Z,5.78
2018-08-18T14:45:24.080Z,5.85
2018-08-18T14:47:54.667Z,6.10
2018-08-18T14:50:28.901Z,6.17
2018-08-18T14:52:58.266Z,5.78
2018-08-18T14:55:30.969Z,6.03
2018-08-18T14:58:01.205Z,5.65
2018-08-18T15:00:34.099Z,6.45
2018-08-18T15:03:05.462Z,6.08
2018-08-18T15:05:39.247Z,5.62
2018-08-18T15:08:10.682Z,5.78
2018-08-18T15:10:45.452Z,6.45
2018-08-18T15:13:16.133Z,5.53
2018-08-18T15:15:47.888Z,5.97
2018-08-18T15:18:21.844Z,6.47
2018-08-18T15:20:55.343Z,5.37
2018-08-18T15:23:28.646Z,5.80
2018-08-18T15:26:01.103Z,6.53
2018-08-18T15:28:32.540Z,8.23
2018-08-18T15:31:05.698Z,7.72
2018-08-18T15:33:39.840Z,9.63
2018-08-18T15:36:20.116Z,6.95
2018-08-18T15:38:50.478Z,6.15
2018-08-18T15:41:23.848Z,6.00
2018-08-18T15:43:54.166Z,6.42
2018-08-18T15:46:30.349Z,6.00
2018-08-18T15:49:00.553Z,6.12
2018-08-18T15:51:33.588Z,6.53
2018-08-18T15:54:07.006Z,6.05
2018-08-18T15:56:39.464Z,5.60
2018-08-18T15:59:11.518Z,5.45
2018-08-18T16:01:42.825Z,5.87
2018-08-18T16:04:17.076Z,6.20
2018-08-18T16:06:50.017Z,5.90
2018-08-18T16:09:22.743Z,6.28
2018-08-18T16:11:54.044Z,5.67
2018-08-18T16:14:27.173Z,6.58
2018-08-18T16:17:00.818Z,6.30
2018-08-18T16:19:33.518Z,6.42
2018-08-18T16:22:03.170Z,7.00
2018-08-18T16:24:35.057Z,6.37
2018-08-18T16:27:06.681Z,7.17
2018-08-18T16:29:35.919Z,6.80
2018-08-18T16:32:17.073Z,6.67
2018-08-18T16:34:47.031Z,5.93
2018-08-18T16:37:16.085Z,5.50
2018-08-18T16:39:46.545Z,5.50
2018-08-18T16:42:15.381Z,6.30
2018-08-18T16:44:44.217Z,5.87
2018-08-18T16:47:14.509Z,6.50
2018-08-18T16:49:43.330Z,6.03
2018-08-18T16:52:13.141Z,5.87
2018-08-18T16:54:42.024Z,5.80
2018-08-18T16:57:12.244Z,6.00
2018-08-18T16:59:41.056Z,6.43
2018-08-18T17:02:19.501Z,5.60
2018-08-18T17:04:48.385Z,5.30
2018-08-18T17:07:23.267Z,5.83
2018-08-18T17:09:52.364Z,5.77
2018-08-18T17:12:23.915Z,5.80
2018-08-18T17:14:52.735Z,7.30
2018-08-18T17:17:23.908Z,7.20
2018-08-18T17:19:52.903Z,6.40
2018-08-18T17:22:21.956Z,6.93
2018-08-18T17:24:52.266Z,7.73
2018-08-18T17:27:21.088Z,5.70
2018-08-18T17:29:51.408Z,5.70
2018-08-18T17:32:20.409Z,5.83
2018-08-18T17:34:49.238Z,6.33
2018-08-18T17:37:18.056Z,6.00
2018-08-18T17:39:46.922Z,5.47
2018-08-18T17:42:15.779Z,6.07
2018-08-18T17:44:44.692Z,5.40
2018-08-18T17:47:13.575Z,5.97
2018-08-18T17:49:48.466Z,6.13
2018-08-18T17:52:17.330Z,5.00
2018-08-18T17:55:11.429Z,5.50
2018-08-18T17:57:40.340Z,5.30
2018-08-18T18:00:17.940Z,5.27
2018-08-18T18:02:52.567Z,5.10
2018-08-18T18:05:22.833Z,4.87
2018-08-18T18:07:54.389Z,4.83
2018-08-18T18:10:26.389Z,5.23
2018-08-18T18:12:55.283Z,5.13
2018-08-18T18:15:31.908Z,5.00
2018-08-18T18:18:00.791Z,5.30
2018-08-18T18:20:31.308Z,4.40
2018-08-18T18:23:00.189Z,4.87
2018-08-18T18:25:29.072Z,4.87
2018-08-18T18:28:00.076Z,4.80
2018-08-18T18:30:30.975Z,3.87
2018-08-18T18:32:59.890Z,4.60
2018-08-18T18:35:28.748Z,4.43
2018-08-18T18:38:00.073Z,4.27
2018-08-18T18:40:29.449Z,4.23
2018-08-18T18:42:58.321Z,4.77
2018-08-18T18:45:28.384Z,4.57
2018-08-18T18:47:57.186Z,4.13
2018-08-18T18:50:26.108Z,4.50
2018-08-18T18:52:55.123Z,4.50
2018-08-18T18:55:23.982Z,4.13
2018-08-18T18:58:26.952Z,4.33
2018-08-18T19:01:11.080Z,4.13
2018-08-18T19:03:41.326Z,4.53
2018-08-18T19:06:10.252Z,3.67
2018-08-18T19:09:04.804Z,4.60
2018-08-18T19:11:33.626Z,4.20
2018-08-18T19:14:03.732Z,3.97
2018-08-18T19:16:32.560Z,3.73
2018-08-18T19:19:01.440Z,4.37
2018-08-18T19:21:33.808Z,4.17
2018-08-18T19:24:08.679Z,4.20
2018-08-18T19:27:00.269Z,4.40
2018-08-18T19:29:31.036Z,3.60
2018-08-18T19:32:00.900Z,4.20
2018-08-18T19:34:29.785Z,4.30
2018-08-18T19:37:07.440Z,3.70
2018-08-18T19:39:37.012Z,3.67
2018-08-18T19:42:11.960Z,4.33
2018-08-18T19:44:45.040Z,4.10
2018-08-18T19:47:18.576Z,4.27
2018-08-18T19:49:47.494Z,4.23
2018-08-18T19:52:17.511Z,3.90
2018-08-18T19:54:48.816Z,4.03
2018-08-18T19:57:27.881Z,3.63
2018-08-18T20:00:04.818Z,3.57
2018-08-18T20:03:11.572Z,4.20
2018-08-18T20:05:40.423Z,4.07
2018-08-18T20:08:09.348Z,4.13
2018-08-18T20:10:44.301Z,4.40
2018-08-18T20:13:13.832Z,4.47
2018-08-18T20:15:47.181Z,4.47
2018-08-18T20:18:16.105Z,4.43
2018-08-18T20:20:44.912Z,4.67
2018-08-18T20:23:17.255Z,4.70
2018-08-18T20:25:46.487Z,4.80
2018-08-18T20:28:15.577Z,4.50
2018-08-18T20:30:45.653Z,4.95
2018-08-18T20:33:14.511Z,4.30
2018-08-18T20:35:43.334Z,4.67
2018-08-18T20:38:12.260Z,4.70
2018-08-18T20:40:41.116Z,4.87
2018-08-18T20:43:09.895Z,5.43
2018-08-18T20:45:44.996Z,5.00
2018-08-18T20:48:16.151Z,4.60
2018-08-18T20:50:45.010Z,5.30
2018-08-18T20:53:15.825Z,5.10
2018-08-18T20:55:46.921Z,4.60
2018-08-18T20:58:15.716Z,5.30
2018-08-18T21:00:44.640Z,5.00
2018-08-18T21:03:13.431Z,5.57
2018-08-18T21:05:42.225Z,4.70
2018-08-18T21:08:15.201Z,4.80
2018-08-18T21:10:44.076Z,4.70
2018-08-18T21:13:12.883Z,5.03
2018-08-18T21:15:41.743Z,4.70
2018-08-18T21:18:20.676Z,4.60
2018-08-18T21:20:50.057Z,5.10
2018-08-18T21:23:19.661Z,5.20
2018-08-18T21:25:50.222Z,4.83
2018-08-18T21:28:19.908Z,4.53
2018-08-18T21:30:50.090Z,5.23
2018-08-18T21:33:19.017Z,5.07
2018-08-18T21:35:47.907Z,5.07
2018-08-18T21:38:16.758Z,5.30
2018-08-18T21:40:45.598Z,5.33
2018-08-18T21:43:25.373Z,4.67
2018-08-18T21:45:55.682Z,5.40
2018-08-18T21:48:35.642Z,5.67
2018-08-18T21:51:04.537Z,5.83
2018-08-18T21:53:33.357Z,6.80
2018-08-18T21:56:02.536Z,7.57
2018-08-18T21:58:31.392Z,6.23
2018-08-18T22:01:05.434Z,7.60
2018-08-18T22:03:34.287Z,5.83
2018-08-18T22:06:03.124Z,6.90
2018-08-18T22:08:32.002Z,6.70
2018-08-18T22:11:00.945Z,7.00
2018-08-18T22:13:34.348Z,7.30
2018-08-18T22:16:03.186Z,5.23
2018-08-18T22:18:31.992Z,6.87
2018-08-18T22:21:00.819Z,4.37
2018-08-18T22:23:29.639Z,4.30
2018-08-18T22:25:58.602Z,5.20
2018-08-18T22:28:27.438Z,4.47
2018-08-18T22:30:56.321Z,4.20
2018-08-18T22:33:30.437Z,4.43
2018-08-18T22:35:59.336Z,4.37
2018-08-18T22:38:28.145Z,4.43
2018-08-18T22:40:56.969Z,4.27
2018-08-18T22:43:34.814Z,4.73
2018-08-18T22:46:03.703Z,4.60
2018-08-18T22:48:32.607Z,4.60
2018-08-18T22:51:01.539Z,4.57
2018-08-18T22:53:30.349Z,4.50
2018-08-18T22:55:59.263Z,4.47
2018-08-18T22:58:28.105Z,4.20
2018-08-18T23:00:58.302Z,4.50
2018-08-18T23:03:27.111Z,4.20
2018-08-18T23:05:56.816Z,3.60
2018-08-18T23:08:25.613Z,4.23
2018-08-18T23:10:54.458Z,4.67
2018-08-18T23:13:23.287Z,4.47
2018-08-18T23:15:52.237Z,4.13
2018-08-18T23:18:21.006Z,4.33
2018-08-18T23:20:49.857Z,4.80
2018-08-18T23:23:18.645Z,5.90
2018-08-18T23:25:47.473Z,4.83
2018-08-18T23:28:16.271Z,4.67
2018-08-18T23:30:45.073Z,5.17
2018-08-18T23:33:13.912Z,4.97
2018-08-18T23:35:42.856Z,5.20
2018-08-18T23:38:11.746Z,4.70
2018-08-18T23:40:40.652Z,4.80
2018-08-18T23:43:09.476Z,4.83
2018-08-18T23:45:43.519Z,4.43
2018-08-18T23:48:13.461Z,4.37
2018-08-18T23:50:43.548Z,3.97
2018-08-18T23:53:18.419Z,4.20
2018-08-18T23:55:52.469Z,4.60
2018-08-18T23:58:22.756Z,4.00
